createdAt,value
2023-01-29T00:00:10.063Z,0.90
2023-01-29T00:02:37.649Z,1.04
2023-01-29T00:05:25.482Z,1.01
2023-01-29T00:07:53.637Z,1.02
2023-01-29T00:10:20.776Z,0.91
2023-01-29T00:12:47.894Z,0.93
2023-01-29T00:15:15.043Z,0.86
2023-01-29T00:17:42.206Z,0.96
2023-01-29T00:20:10.433Z,0.99
2023-01-29T00:22:37.559Z,0.82
2023-01-29T00:25:05.249Z,0.84
2023-01-29T00:27:32.422Z,0.78
2023-01-29T00:30:16.345Z,0.86
2023-01-29T00:32:43.690Z,0.77
2023-01-29T00:35:11.766Z,0.89
2023-01-29T00:37:39.062Z,0.75
2023-01-29T00:40:06.997Z,0.73
2023-01-29T00:42:52.832Z,0.86
2023-01-29T00:45:20.042Z,0.85
2023-01-29T00:47:47.259Z,0.83
2023-01-29T00:50:14.759Z,1.01
2023-01-29T00:52:42.149Z,0.87
2023-01-29T00:55:11.678Z,0.78
2023-01-29T00:57:39.163Z,0.83
2023-01-29T01:00:11.705Z,0.75
2023-01-29T01:02:57.735Z,0.82
2023-01-29T01:05:25.228Z,0.68
2023-01-29T01:07:55.945Z,0.74
2023-01-29T01:10:29.194Z,0.78
2023-01-29T01:13:04.721Z,0.73
2023-01-29T01:15:37.566Z,0.77
2023-01-29T01:18:05.190Z,0.73
2023-01-29T01:20:34.973Z,0.77
2023-01-29T01:23:02.682Z,0.69
2023-01-29T01:25:29.839Z,0.84
2023-01-29T01:30:26.727Z,0.72
2023-01-29T01:32:54.937Z,0.76
2023-01-29T01:35:22.108Z,0.70
2023-01-29T01:37:49.272Z,0.77
2023-01-29T01:40:24.610Z,0.84
2023-01-29T01:42:58.631Z,0.81
2023-01-29T01:45:29.706Z,0.78
2023-01-29T01:48:18.128Z,0.94
2023-01-29T01:50:53.628Z,0.88
2023-01-29T01:53:39.908Z,0.86
2023-01-29T01:56:14.760Z,0.86
2023-01-29T01:58:52.222Z,0.90
2023-01-29T02:01:30.828Z,0.86
2023-01-29T02:04:24.433Z,0.92
2023-01-29T02:07:14.027Z,1.02
2023-01-29T02:09:52.493Z,1.11
2023-01-29T02:12:21.494Z,1.01
2023-01-29T02:14:48.823Z,1.01
2023-01-29T02:17:19.528Z,1.02
2023-01-29T02:20:08.425Z,0.98
2023-01-29T02:22:59.135Z,0.96
2023-01-29T02:25:44.815Z,0.99
2023-01-29T02:28:41.054Z,0.98
2023-01-29T02:31:40.958Z,1.07
2023-01-29T02:34:54.898Z,1.03
2023-01-29T02:37:31.836Z,0.96
2023-01-29T02:40:24.771Z,0.99
2023-01-29T02:43:16.048Z,0.99
2023-01-29T02:45:58.389Z,0.96
2023-01-29T02:48:39.870Z,1.01
2023-01-29T02:51:39.914Z,0.96
2023-01-29T02:54:33.492Z,1.04
2023-01-29T02:57:29.062Z,1.04
2023-01-29T03:00:06.936Z,1.02
2023-01-29T03:02:58.448Z,1.00
2023-01-29T03:05:35.257Z,0.97
2023-01-29T03:08:10.727Z,0.97
2023-01-29T03:10:51.057Z,1.11
2023-01-29T03:13:49.446Z,1.10
2023-01-29T03:16:31.133Z,1.06
2023-01-29T03:19:38.642Z,1.12
2023-01-29T03:22:10.731Z,1.17
2023-01-29T03:25:05.228Z,1.06
2023-01-29T03:28:08.601Z,1.06
2023-01-29T03:31:02.333Z,1.10
2023-01-29T03:33:45.521Z,1.08
2023-01-29T03:36:45.202Z,1.14
2023-01-29T03:39:15.792Z,1.12
2023-01-29T03:42:02.567Z,1.12
2023-01-29T03:45:07.706Z,1.14
2023-01-29T03:48:03.140Z,1.12
2023-01-29T03:50:55.992Z,0.93
2023-01-29T03:53:37.877Z,0.96
2023-01-29T03:56:31.530Z,0.99
2023-01-29T03:59:12.984Z,0.94
2023-01-29T04:01:51.784Z,0.85
2023-01-29T04:04:37.047Z,0.86
2023-01-29T04:07:26.196Z,0.91
2023-01-29T04:10:22.215Z,0.79
2023-01-29T04:12:58.453Z,0.83
2023-01-29T04:15:31.882Z,0.82
2023-01-29T04:17:59.768Z,0.82
2023-01-29T04:20:26.922Z,0.83
2023-01-29T04:22:54.098Z,0.72
2023-01-29T04:25:32.004Z,0.71
2023-01-29T04:28:12.536Z,0.80
2023-01-29T04:31:00.402Z,0.69
2023-01-29T04:34:07.922Z,0.74
2023-01-29T04:37:30.297Z,0.75
2023-01-29T04:40:19.048Z,0.83
2023-01-29T04:43:08.422Z,0.76
2023-01-29T04:46:20.591Z,0.80
2023-01-29T04:49:15.866Z,0.74
2023-01-29T04:52:21.899Z,0.73
2023-01-29T04:55:04.208Z,0.87
2023-01-29T04:57:50.839Z,0.73
2023-01-29T05:00:32.990Z,0.80
2023-01-29T05:03:02.024Z,0.80
2023-01-29T05:05:30.847Z,0.79
2023-01-29T05:07:59.455Z,0.76
2023-01-29T05:10:27.819Z,0.69
2023-01-29T05:13:03.255Z,0.67
2023-01-29T05:15:39.131Z,0.70
2023-01-29T05:18:09.054Z,0.71
2023-01-29T05:20:40.475Z,0.66
2023-01-29T05:23:25.949Z,0.74
2023-01-29T05:25:53.277Z,0.74
2023-01-29T05:28:20.499Z,0.66
2023-01-29T05:30:51.379Z,0.69
2023-01-29T05:33:24.463Z,0.64
2023-01-29T05:35:51.897Z,0.73
2023-01-29T05:38:20.375Z,0.65
2023-01-29T05:40:48.073Z,0.69
2023-01-29T05:43:21.900Z,0.76
2023-01-29T05:45:58.092Z,0.75
2023-01-29T05:48:28.915Z,0.74
2023-01-29T05:51:04.830Z,0.76
2023-01-29T05:53:33.741Z,0.75
2023-01-29T05:56:03.123Z,0.76
2023-01-29T05:58:31.816Z,0.73
2023-01-29T06:01:07.353Z,0.79
2023-01-29T06:03:34.508Z,0.83
2023-01-29T06:06:02.567Z,0.78
2023-01-29T06:08:29.806Z,0.86
2023-01-29T06:10:56.949Z,0.82
2023-01-29T06:13:24.122Z,0.84
2023-01-29T06:15:51.294Z,0.86
2023-01-29T06:18:18.465Z,0.96
2023-01-29T06:20:45.681Z,0.82
2023-01-29T06:23:12.843Z,0.89
2023-01-29T06:25:40.015Z,0.97
2023-01-29T06:28:07.159Z,0.94
2023-01-29T06:30:34.313Z,0.97
2023-01-29T06:33:01.929Z,1.02
2023-01-29T06:35:29.121Z,1.05
2023-01-29T06:37:56.511Z,0.99
2023-01-29T06:40:23.663Z,1.03
2023-01-29T06:42:50.898Z,1.01
2023-01-29T06:45:18.075Z,1.04
2023-01-29T06:47:45.198Z,0.95
2023-01-29T06:50:12.380Z,0.98
2023-01-29T06:52:39.562Z,0.98
2023-01-29T06:55:07.375Z,1.02
2023-01-29T06:57:34.534Z,1.06
2023-01-29T07:00:01.773Z,1.11
2023-01-29T07:02:29.020Z,1.08
2023-01-29T07:04:56.270Z,1.03
2023-01-29T07:07:23.417Z,1.04
2023-01-29T07:09:50.546Z,1.06
2023-01-29T07:12:17.663Z,1.12
2023-01-29T07:14:44.859Z,1.12
2023-01-29T07:17:12.032Z,1.08
2023-01-29T07:19:40.581Z,1.10
2023-01-29T07:22:07.743Z,1.10
2023-01-29T07:24:34.933Z,1.14
2023-01-29T07:27:02.129Z,1.08
2023-01-29T07:29:29.293Z,1.08
2023-01-29T07:31:56.673Z,1.15
2023-01-29T07:34:23.950Z,1.12
2023-01-29T07:36:53.953Z,1.16
2023-01-29T07:39:21.091Z,1.21
2023-01-29T07:41:48.328Z,1.21
2023-01-29T07:44:15.882Z,1.23
2023-01-29T07:46:43.367Z,1.20
2023-01-29T07:49:10.843Z,1.22
2023-01-29T07:51:38.022Z,1.23
2023-01-29T07:54:05.337Z,1.33
2023-01-29T07:56:32.495Z,1.28
2023-01-29T07:58:59.649Z,1.28
2023-01-29T08:01:26.920Z,1.22
2023-01-29T08:03:54.167Z,1.31
2023-01-29T08:06:21.331Z,1.30
2023-01-29T08:08:48.751Z,1.30
2023-01-29T08:11:15.980Z,1.39
2023-01-29T08:13:43.175Z,1.40
2023-01-29T08:16:10.525Z,1.37
2023-01-29T08:18:38.610Z,1.40
2023-01-29T08:21:05.911Z,1.69
2023-01-29T08:23:33.091Z,1.66
2023-01-29T08:26:03.337Z,2.53
2023-01-29T08:28:30.725Z,2.42
2023-01-29T08:30:57.916Z,1.66
2023-01-29T08:33:38.027Z,1.63
2023-01-29T08:36:07.324Z,1.55
2023-01-29T08:38:34.474Z,1.58
2023-01-29T08:41:01.708Z,1.61
2023-01-29T08:43:28.837Z,1.54
2023-01-29T08:45:56.018Z,1.62
2023-01-29T08:48:23.944Z,1.62
2023-01-29T08:50:51.639Z,1.59
2023-01-29T08:53:24.222Z,1.64
2023-01-29T08:55:52.356Z,1.57
2023-01-29T08:58:20.446Z,1.63
2023-01-29T09:00:47.804Z,1.56
2023-01-29T09:03:15.367Z,1.62
2023-01-29T09:05:42.535Z,1.52
2023-01-29T09:08:10.199Z,1.56
2023-01-29T09:10:37.409Z,1.53
2023-01-29T09:13:04.994Z,1.59
2023-01-29T09:15:32.192Z,1.65
2023-01-29T09:18:04.278Z,1.65
2023-01-29T09:20:31.755Z,1.49
2023-01-29T09:22:59.191Z,1.57
2023-01-29T09:25:26.369Z,1.57
2023-01-29T09:27:54.239Z,1.59
2023-01-29T09:30:21.722Z,1.54
2023-01-29T09:32:53.542Z,1.57
2023-01-29T09:35:24.454Z,1.50
2023-01-29T09:37:52.567Z,1.45
2023-01-29T09:40:34.466Z,1.38
2023-01-29T09:43:17.851Z,1.44
2023-01-29T09:46:17.367Z,1.48
2023-01-29T09:48:48.224Z,1.42
2023-01-29T09:51:30.448Z,1.46
2023-01-29T09:54:16.399Z,1.46
2023-01-29T09:56:46.406Z,1.55
2023-01-29T09:59:18.973Z,1.51
2023-01-29T10:02:10.944Z,1.46
2023-01-29T10:05:05.996Z,1.50
2023-01-29T10:08:25.665Z,1.48
2023-01-29T10:11:12.861Z,1.53
2023-01-29T10:14:11.467Z,1.53
2023-01-29T10:17:22.919Z,1.68
2023-01-29T10:20:31.747Z,1.69
2023-01-29T10:23:25.028Z,1.63
2023-01-29T10:25:53.470Z,1.59
2023-01-29T10:28:39.521Z,1.64
2023-01-29T10:31:13.405Z,1.72
2023-01-29T10:34:02.719Z,1.68
2023-01-29T10:36:46.350Z,1.68
2023-01-29T10:39:25.267Z,1.76
2023-01-29T10:42:20.526Z,1.70
2023-01-29T10:45:21.700Z,1.72
2023-01-29T10:48:21.565Z,1.80
2023-01-29T10:51:01.794Z,1.73
2023-01-29T10:54:03.953Z,1.80
2023-01-29T10:56:44.239Z,1.80
2023-01-29T10:59:39.424Z,1.84
2023-01-29T11:02:21.164Z,1.85
2023-01-29T11:04:48.907Z,1.82
2023-01-29T11:07:21.347Z,1.88
2023-01-29T11:10:21.823Z,1.84
2023-01-29T11:12:50.189Z,1.80
2023-01-29T11:15:28.071Z,1.87
2023-01-29T11:18:05.594Z,1.89
2023-01-29T11:20:34.066Z,1.93
2023-01-29T11:23:01.227Z,1.91
2023-01-29T11:25:29.864Z,2.02
2023-01-29T11:28:02.058Z,2.05
2023-01-29T11:30:35.539Z,2.07
2023-01-29T11:33:08.151Z,2.06
2023-01-29T11:35:36.639Z,2.16
2023-01-29T11:38:27.625Z,2.18
2023-01-29T11:41:07.862Z,2.18
2023-01-29T11:43:35.087Z,2.16
2023-01-29T11:46:13.766Z,2.18
2023-01-29T11:48:51.332Z,2.26
2023-01-29T11:51:28.576Z,2.45
2023-01-29T11:54:02.784Z,2.45
2023-01-29T11:56:41.689Z,2.26
2023-01-29T11:59:37.377Z,2.17
2023-01-29T12:02:31.522Z,2.17
2023-01-29T12:05:32.434Z,2.19
2023-01-29T12:08:02.311Z,2.24
2023-01-29T12:10:39.226Z,2.26
2023-01-29T12:13:10.585Z,2.28
2023-01-29T12:15:40.300Z,2.21
2023-01-29T12:18:30.378Z,2.27
2023-01-29T12:21:03.230Z,2.34
2023-01-29T12:23:59.218Z,2.37
2023-01-29T12:26:42.004Z,2.32
2023-01-29T12:29:49.420Z,2.27
2023-01-29T12:32:39.251Z,2.24
2023-01-29T12:35:28.097Z,2.31
2023-01-29T12:38:20.091Z,2.33
2023-01-29T12:40:55.151Z,2.32
2023-01-29T12:43:42.131Z,2.32
2023-01-29T12:46:38.505Z,2.29
2023-01-29T12:49:16.662Z,2.31
2023-01-29T12:52:07.045Z,2.32
2023-01-29T12:54:41.182Z,2.26
2023-01-29T12:57:21.869Z,2.27
2023-01-29T13:00:23.927Z,2.25
2023-01-29T13:03:04.290Z,2.32
2023-01-29T13:05:44.020Z,2.34
2023-01-29T13:08:40.031Z,2.37
2023-01-29T13:11:18.022Z,2.41
2023-01-29T13:13:54.672Z,2.38
2023-01-29T13:16:28.301Z,2.37
2023-01-29T13:19:05.096Z,2.39
2023-01-29T13:21:40.683Z,2.39
2023-01-29T13:24:23.545Z,2.47
2023-01-29T13:26:51.289Z,2.41
2023-01-29T13:29:29.292Z,2.41
2023-01-29T13:32:00.434Z,2.40
2023-01-29T13:34:37.684Z,2.47
2023-01-29T13:37:16.795Z,2.48
2023-01-29T13:39:51.947Z,2.50
2023-01-29T13:42:49.182Z,2.55
2023-01-29T13:45:25.803Z,2.57
2023-01-29T13:47:54.230Z,2.63
2023-01-29T13:50:37.205Z,2.59
2023-01-29T13:53:08.302Z,2.65
2023-01-29T13:55:39.276Z,2.65
2023-01-29T13:58:16.040Z,2.60
2023-01-29T14:00:43.062Z,2.67
2023-01-29T14:03:12.935Z,2.65
2023-01-29T14:05:57.916Z,2.65
2023-01-29T14:08:34.132Z,2.66
2023-01-29T14:11:13.493Z,2.66
2023-01-29T14:13:48.784Z,2.60
2023-01-29T14:16:34.870Z,2.59
2023-01-29T14:19:05.060Z,2.63
2023-01-29T14:21:37.692Z,2.67
2023-01-29T14:24:31.300Z,2.67
2023-01-29T14:26:59.327Z,2.68
2023-01-29T14:29:35.466Z,2.64
2023-01-29T14:32:22.032Z,2.64
2023-01-29T14:34:56.107Z,2.57
2023-01-29T14:37:41.746Z,2.56
2023-01-29T14:40:11.799Z,2.48
2023-01-29T14:42:57.854Z,2.43
2023-01-29T14:45:35.361Z,2.37
2023-01-29T14:48:11.307Z,2.37
2023-01-29T14:50:48.422Z,2.39
2023-01-29T14:53:27.833Z,2.35
2023-01-29T14:56:09.957Z,2.34
2023-01-29T14:58:52.311Z,2.40
2023-01-29T15:01:39.506Z,2.33
2023-01-29T15:04:19.128Z,2.43
2023-01-29T15:07:01.123Z,2.40
2023-01-29T15:09:51.322Z,2.42
2023-01-29T15:12:49.298Z,2.36
2023-01-29T15:15:41.082Z,2.33
2023-01-29T15:18:16.197Z,2.33
2023-01-29T15:20:44.316Z,2.29
2023-01-29T15:23:32.558Z,2.27
2023-01-29T15:26:04.338Z,2.28
2023-01-29T15:28:35.169Z,2.27
2023-01-29T15:31:11.961Z,2.28
2023-01-29T15:33:44.982Z,2.27
2023-01-29T15:36:21.925Z,2.27
2023-01-29T15:39:04.112Z,2.33
2023-01-29T15:41:32.061Z,2.47
2023-01-29T15:44:01.078Z,2.21
2023-01-29T15:46:36.240Z,2.27
2023-01-29T15:49:11.537Z,2.23
2023-01-29T15:51:39.343Z,2.20
2023-01-29T15:54:15.909Z,2.17
2023-01-29T15:56:51.317Z,2.14
2023-01-29T15:59:25.900Z,2.17
2023-01-29T16:01:54.295Z,2.16
2023-01-29T16:04:30.339Z,2.71
2023-01-29T16:07:00.410Z,2.52
2023-01-29T16:09:29.765Z,2.23
2023-01-29T16:11:59.149Z,2.23
2023-01-29T16:14:28.476Z,2.14
2023-01-29T16:16:55.865Z,2.19
2023-01-29T16:19:27.098Z,2.07
2023-01-29T16:22:05.784Z,2.08
2023-01-29T16:24:37.192Z,2.10
2023-01-29T16:27:13.928Z,2.03
2023-01-29T16:29:41.612Z,1.99
2023-01-29T16:32:12.312Z,1.99
2023-01-29T16:34:44.433Z,1.95
2023-01-29T16:37:23.975Z,1.89
2023-01-29T16:39:52.760Z,1.91
2023-01-29T16:42:28.546Z,1.87
2023-01-29T16:45:05.351Z,1.90
2023-01-29T16:47:43.778Z,1.87
2023-01-29T16:50:36.135Z,1.91
2023-01-29T16:53:19.001Z,1.86
2023-01-29T16:55:49.661Z,1.83
2023-01-29T16:58:21.453Z,1.88
2023-01-29T17:01:05.062Z,1.85
2023-01-29T17:03:34.553Z,1.90
2023-01-29T17:06:13.662Z,1.91
2023-01-29T17:08:44.229Z,1.95
2023-01-29T17:11:24.951Z,1.87
2023-01-29T17:13:57.041Z,1.87
2023-01-29T17:16:35.533Z,1.92
2023-01-29T17:19:17.423Z,1.87
2023-01-29T17:21:44.652Z,1.90
2023-01-29T17:24:11.805Z,1.91
2023-01-29T17:26:39.777Z,1.90
2023-01-29T17:29:15.572Z,1.94
2023-01-29T17:31:43.781Z,1.93
2023-01-29T17:34:15.781Z,1.94
2023-01-29T17:36:44.391Z,1.91
2023-01-29T17:39:24.353Z,1.95
2023-01-29T17:41:55.524Z,1.93
2023-01-29T17:44:23.477Z,1.95
2023-01-29T17:46:50.841Z,1.96
2023-01-29T17:49:24.657Z,1.93
2023-01-29T17:51:54.171Z,1.99
2023-01-29T17:54:22.285Z,1.99
2023-01-29T17:56:50.657Z,2.02
2023-01-29T17:59:25.050Z,2.01
2023-01-29T18:01:53.246Z,1.93
2023-01-29T18:04:21.376Z,1.91
2023-01-29T18:06:50.980Z,1.87
2023-01-29T18:09:20.574Z,1.91
2023-01-29T18:11:49.773Z,1.93
2023-01-29T18:14:17.702Z,1.96
2023-01-29T18:16:46.012Z,1.96
2023-01-29T18:19:22.721Z,1.97
2023-01-29T18:21:50.784Z,1.92
2023-01-29T18:24:20.308Z,1.88
2023-01-29T18:26:49.310Z,1.91
2023-01-29T18:29:16.573Z,1.92
2023-01-29T18:31:43.799Z,1.86
2023-01-29T18:34:10.980Z,1.91
2023-01-29T18:36:38.427Z,1.87
2023-01-29T18:39:05.617Z,1.84
2023-01-29T18:41:33.662Z,1.87
2023-01-29T18:44:01.566Z,1.86
2023-01-29T18:46:28.831Z,1.91
2023-01-29T18:48:56.386Z,1.93
2023-01-29T18:51:23.521Z,1.93
2023-01-29T18:53:52.104Z,1.91
2023-01-29T18:56:20.772Z,1.95
2023-01-29T18:58:52.148Z,1.96
2023-01-29T19:01:23.698Z,1.91
2023-01-29T19:03:50.967Z,1.94
2023-01-29T19:06:18.470Z,1.95
2023-01-29T19:08:47.307Z,1.97
2023-01-29T19:11:17.613Z,1.97
2023-01-29T19:13:45.998Z,1.98
2023-01-29T19:16:13.999Z,1.96
2023-01-29T19:18:43.618Z,1.97
2023-01-29T19:21:14.833Z,2.01
2023-01-29T19:23:43.695Z,2.01
2023-01-29T19:26:11.547Z,1.99
2023-01-29T19:28:39.463Z,2.01
2023-01-29T19:31:06.734Z,2.02
2023-01-29T19:33:33.971Z,2.04
2023-01-29T19:36:01.872Z,3.34
2023-01-29T19:38:29.122Z,3.23
2023-01-29T19:40:56.342Z,2.66
2023-01-29T19:43:23.779Z,2.21
2023-01-29T19:45:58.908Z,2.17
2023-01-29T19:48:27.357Z,2.14
2023-01-29T19:51:01.394Z,2.14
2023-01-29T19:53:29.310Z,2.13
2023-01-29T19:56:05.749Z,2.13
2023-01-29T19:58:34.465Z,2.14
2023-01-29T20:01:13.791Z,2.13
2023-01-29T20:03:42.047Z,2.12
2023-01-29T20:06:09.668Z,2.11
2023-01-29T20:08:36.947Z,2.14
2023-01-29T20:11:05.572Z,2.13
2023-01-29T20:13:33.536Z,2.11
2023-01-29T20:16:03.409Z,2.13
2023-01-29T20:18:31.418Z,2.12
2023-01-29T20:20:59.553Z,2.21
2023-01-29T20:23:37.208Z,2.13
2023-01-29T20:26:13.104Z,2.14
2023-01-29T20:28:40.720Z,2.14
2023-01-29T20:31:09.655Z,2.16
2023-01-29T20:33:39.202Z,2.20
2023-01-29T20:36:10.204Z,2.14
2023-01-29T20:38:38.087Z,2.14
2023-01-29T20:41:12.528Z,2.23
2023-01-29T20:43:40.416Z,2.25
2023-01-29T20:46:08.761Z,2.25
2023-01-29T20:48:36.587Z,2.26
2023-01-29T20:51:15.608Z,2.25
2023-01-29T20:53:45.522Z,2.26
2023-01-29T20:56:16.574Z,2.29
2023-01-29T20:58:46.504Z,2.26
2023-01-29T21:01:17.705Z,2.29
2023-01-29T21:03:46.252Z,2.29
2023-01-29T21:06:14.324Z,2.26
2023-01-29T21:08:41.948Z,2.29
2023-01-29T21:11:10.484Z,2.33
2023-01-29T21:13:37.915Z,2.33
2023-01-29T21:16:05.766Z,2.33
2023-01-29T21:18:33.156Z,2.35
2023-01-29T21:21:00.391Z,2.38
2023-01-29T21:23:27.569Z,2.42
2023-01-29T21:26:05.162Z,2.42
2023-01-29T21:28:33.037Z,2.40
2023-01-29T21:31:10.963Z,2.42
2023-01-29T21:33:38.398Z,2.45
2023-01-29T21:36:06.741Z,2.43
2023-01-29T21:38:33.994Z,2.42
2023-01-29T21:41:08.691Z,2.41
2023-01-29T21:43:36.649Z,2.43
2023-01-29T21:46:13.291Z,2.43
2023-01-29T21:48:40.559Z,2.41
2023-01-29T21:51:08.132Z,2.44
2023-01-29T21:53:36.651Z,2.41
2023-01-29T21:56:05.647Z,2.43
2023-01-29T21:58:33.427Z,2.42
2023-01-29T22:01:18.461Z,2.42
2023-01-29T22:03:47.914Z,2.46
2023-01-29T22:06:15.772Z,2.47
2023-01-29T22:08:43.185Z,2.50
2023-01-29T22:11:10.750Z,2.50
2023-01-29T22:13:38.139Z,2.48
2023-01-29T22:16:06.048Z,2.51
2023-01-29T22:18:33.964Z,2.55
2023-01-29T22:21:04.347Z,2.57
2023-01-29T22:23:31.950Z,2.56
2023-01-29T22:26:07.152Z,2.60
2023-01-29T22:28:34.394Z,2.62
2023-01-29T22:31:03.877Z,2.64
2023-01-29T22:33:33.174Z,2.62
2023-01-29T22:36:01.368Z,2.62
2023-01-29T22:38:29.165Z,2.67
2023-01-29T22:40:59.184Z,2.67
2023-01-29T22:43:26.356Z,2.69
2023-01-29T22:45:53.545Z,2.70
2023-01-29T22:48:23.534Z,2.70
2023-01-29T22:51:11.836Z,2.73
2023-01-29T22:53:48.822Z,2.71
2023-01-29T22:56:17.591Z,2.74
2023-01-29T22:58:45.108Z,2.77
2023-01-29T23:01:12.337Z,2.78
2023-01-29T23:03:39.651Z,2.77
2023-01-29T23:06:06.912Z,2.77
2023-01-29T23:08:34.102Z,2.84
2023-01-29T23:11:15.357Z,2.83
2023-01-29T23:13:51.998Z,2.84
2023-01-29T23:16:26.952Z,2.86
2023-01-29T23:18:56.463Z,2.86
2023-01-29T23:21:25.639Z,2.90
2023-01-29T23:23:55.207Z,2.89
2023-01-29T23:26:40.867Z,2.92
2023-01-29T23:29:08.150Z,2.92
2023-01-29T23:31:35.432Z,2.94
2023-01-29T23:34:02.793Z,2.94
2023-01-29T23:36:30.120Z,2.97
2023-01-29T23:38:57.299Z,2.95
2023-01-29T23:41:24.600Z,2.99
2023-01-29T23:43:53.045Z,3.03
2023-01-29T23:46:20.274Z,3.02
2023-01-29T23:48:47.427Z,3.05
2023-01-29T23:51:14.540Z,3.05
2023-01-29T23:53:41.673Z,3.08
2023-01-29T23:56:10.634Z,3.10
2023-01-29T23:58:37.993Z,3.10
